Time;durP1;ratioP1;P1;durP2;ratioP2;P2;SDS_P1;SDS_P2;PMS_P1;PMS_P2;Temp;Humidity;BMP_temperature;BMP_pressure;BME280_temperature;BME280_humidity;BME280_pressure;Samples;Min_cycle;Max_cycle;Signal;HPM_P1;HPM_P2
2023/03/05 00:01:15;;;;;;;6.28;3.15;;;;;;;;;;5112963;28;20106;-67
2023/03/05 00:03:41;;;;;;;13.88;4.20;;;;;;;;;;5113095;28;20201;-67
2023/03/05 00:06:07;;;;;;;9.25;3.20;;;;;;;;;;5111651;28;20133;-67
2023/03/05 00:08:32;;;;;;;4.40;2.53;;;;;;;;;;5112825;28;20508;-67
2023/03/05 00:10:58;;;;;;;6.88;2.92;;;;;;;;;;5112960;28;20107;-67
2023/03/05 00:13:24;;;;;;;9.38;3.88;;;;;;;;;;5112822;28;20027;-67
2023/03/05 00:15:49;;;;;;;7.78;3.17;;;;;;;;;;5112898;28;20024;-67
2023/03/05 00:18:15;;;;;;;7.72;4.43;;;;;;;;;;5111486;28;20019;-67
2023/03/05 00:20:40;;;;;;;6.22;3.25;;;;;;;;;;5112769;28;20023;-67
2023/03/05 00:23:05;;;;;;;3.40;2.90;;;;;;;;;;5111467;28;20015;-67
2023/03/05 00:25:33;;;;;;;7.63;3.63;;;;;;;;;;5112679;28;20381;-67
2023/03/05 00:27:58;;;;;;;5.38;3.00;;;;;;;;;;5112396;28;20023;-66
2023/03/05 00:30:24;;;;;;;7.10;3.05;;;;;;;;;;5111547;28;20040;-67
2023/03/05 00:32:50;;;;;;;6.85;3.75;;;;;;;;;;5111333;28;20043;-67
2023/03/05 00:35:15;;;;;;;4.13;2.78;;;;;;;;;;5112766;28;20483;-67
2023/03/05 00:37:41;;;;;;;6.40;4.03;;;;;;;;;;5111163;28;20461;-67
2023/03/05 00:40:06;;;;;;;7.10;3.40;;;;;;;;;;5112447;28;20032;-67
2023/03/05 00:42:37;;;;;;;3.80;2.78;;;;;;;;;;5111204;28;20019;-67
2023/03/05 00:45:06;;;;;;;8.25;3.03;;;;;;;;;;5111269;28;20096;-67
2023/03/05 00:47:31;;;;;;;4.05;3.33;;;;;;;;;;5111033;28;20047;-67
2023/03/05 00:49:57;;;;;;;4.63;2.90;;;;;;;;;;5111047;28;20063;-67
2023/03/05 00:52:23;;;;;;;7.07;3.25;;;;;;;;;;5115268;28;20049;-66
2023/03/05 00:54:48;;;;;;;7.22;4.35;;;;;;;;;;5115269;28;20069;-68
2023/03/05 00:57:14;;;;;;;5.95;2.83;;;;;;;;;;5115273;28;20047;-67
2023/03/05 00:59:39;;;;;;;6.68;3.38;;;;;;;;;;5116488;28;20032;-67
2023/03/05 01:02:05;;;;;;;8.88;2.92;;;;;;;;;;5114872;28;20027;-66
2023/03/05 01:04:30;;;;;;;5.55;3.38;;;;;;;;;;5116324;28;20023;-66
2023/03/05 01:06:56;;;;;;;10.15;5.82;;;;;;;;;;5114870;28;20018;-66
2023/03/05 01:09:24;;;;;;;5.40;3.40;;;;;;;;;;5115015;28;20040;-67
2023/03/05 01:11:49;;;;;;;8.10;3.42;;;;;;;;;;5115109;28;20476;-67
2023/03/05 01:14:15;;;;;;;3.53;2.72;;;;;;;;;;5114671;28;20040;-67
2023/03/05 01:16:40;;;;;;;5.07;2.83;;;;;;;;;;5114951;28;20023;-67
2023/03/05 01:19:06;;;;;;;6.13;3.30;;;;;;;;;;5114724;28;20089;-67
2023/03/05 01:21:31;;;;;;;6.47;3.03;;;;;;;;;;5116055;28;20027;-68
2023/03/05 01:23:57;;;;;;;7.97;3.35;;;;;;;;;;5116039;28;20032;-68
2023/03/05 01:26:23;;;;;;;4.97;3.03;;;;;;;;;;5116018;28;20457;-67
2023/03/05 01:28:48;;;;;;;9.32;3.80;;;;;;;;;;5115998;28;20136;-68
2023/03/05 01:31:13;;;;;;;7.07;3.75;;;;;;;;;;5097521;28;20027;-67
2023/03/05 01:33:39;;;;;;;4.80;3.47;;;;;;;;;;5097352;28;20030;-68
2023/03/05 01:36:14;;;;;;;4.85;2.67;;;;;;;;;;5114553;28;20350;-68
2023/03/05 01:38:43;;;;;;;5.03;2.78;;;;;;;;;;5114583;28;20109;-67
2023/03/05 01:41:09;;;;;;;8.75;3.72;;;;;;;;;;5097415;28;20031;-67
2023/03/05 01:43:34;;;;;;;7.43;3.60;;;;;;;;;;5097832;28;20028;-67
2023/03/05 01:46:21;;;;;;;9.88;4.57;;;;;;;;;;5114235;28;20114;-67
2023/03/05 01:48:49;;;;;;;5.20;2.90;;;;;;;;;;5115438;28;20035;-68
2023/03/05 01:51:16;;;;;;;7.00;4.00;;;;;;;;;;5115705;28;20012;-67
2023/03/05 01:53:41;;;;;;;4.72;3.35;;;;;;;;;;5114334;28;20118;-68
2023/03/05 01:56:07;;;;;;;6.22;3.47;;;;;;;;;;5114222;28;20149;-67
2023/03/05 01:58:33;;;;;;;7.03;3.55;;;;;;;;;;5115359;28;20031;-67
2023/03/05 02:00:58;;;;;;;7.53;3.15;;;;;;;;;;5113487;28;20015;-67
2023/03/05 02:03:24;;;;;;;6.55;3.47;;;;;;;;;;5115469;28;20099;-67
2023/03/05 02:05:50;;;;;;;7.70;3.03;;;;;;;;;;5113989;28;20020;-67
2023/03/05 02:08:17;;;;;;;7.25;3.65;;;;;;;;;;5115165;28;20035;-66
2023/03/05 02:10:55;;;;;;;8.45;3.97;;;;;;;;;;5115134;28;20031;-68
2023/03/05 02:13:23;;;;;;;16.88;5.15;;;;;;;;;;5115331;28;20102;-66
2023/03/05 02:15:48;;;;;;;9.13;4.45;;;;;;;;;;5115215;28;20036;-67
2023/03/05 02:18:14;;;;;;;9.75;3.92;;;;;;;;;;5113711;28;20024;-67
2023/03/05 02:20:45;;;;;;;9.10;4.05;;;;;;;;;;5096682;28;20084;-67
2023/03/05 02:23:10;;;;;;;6.57;3.88;;;;;;;;;;5113504;28;20028;-68
2023/03/05 02:25:35;;;;;;;5.22;2.60;;;;;;;;;;5096624;28;20031;-68
2023/03/05 02:28:07;;;;;;;6.13;3.22;;;;;;;;;;5113328;28;20028;-67
2023/03/05 02:30:33;;;;;;;7.95;3.30;;;;;;;;;;5114867;28;20051;-68
2023/03/05 02:32:58;;;;;;;7.30;3.35;;;;;;;;;;5113544;28;20085;-68
2023/03/05 02:35:25;;;;;;;7.57;4.68;;;;;;;;;;5113451;28;20059;-67
2023/03/05 02:37:50;;;;;;;6.60;3.22;;;;;;;;;;5114623;28;20512;-67
2023/03/05 02:40:16;;;;;;;7.43;3.70;;;;;;;;;;5096314;28;20435;-67
2023/03/05 02:42:41;;;;;;;6.90;3.63;;;;;;;;;;5113440;28;20039;-67
2023/03/05 02:45:09;;;;;;;6.28;3.17;;;;;;;;;;5096209;28;20085;-67
2023/03/05 02:47:34;;;;;;;5.15;2.65;;;;;;;;;;5096265;28;20388;-69
2023/03/05 02:50:00;;;;;;;5.50;3.00;;;;;;;;;;5096245;28;20039;-68
2023/03/05 02:52:26;;;;;;;5.25;4.32;;;;;;;;;;5114512;28;20015;-68
2023/03/05 02:54:51;;;;;;;6.65;3.03;;;;;;;;;;5113209;28;20028;-67
2023/03/05 02:57:17;;;;;;;9.98;4.20;;;;;;;;;;5112757;28;20657;-66
2023/03/05 02:59:44;;;;;;;8.15;4.18;;;;;;;;;;5112986;28;20028;-66
2023/03/05 03:02:09;;;;;;;9.00;5.80;;;;;;;;;;5112756;28;20019;-65
2023/03/05 03:04:35;;;;;;;7.00;3.85;;;;;;;;;;5112709;28;20031;-66
2023/03/05 03:07:00;;;;;;;6.85;4.05;;;;;;;;;;5114289;28;20020;-69
2023/03/05 03:09:25;;;;;;;8.55;4.43;;;;;;;;;;5112852;28;20126;-66
2023/03/05 03:11:52;;;;;;;8.25;3.35;;;;;;;;;;5114080;28;20023;-66
2023/03/05 03:14:17;;;;;;;9.00;3.55;;;;;;;;;;5113087;28;20152;-66
2023/03/05 03:16:42;;;;;;;18.92;4.30;;;;;;;;;;5112650;28;20046;-67
2023/03/05 03:19:08;;;;;;;11.02;4.80;;;;;;;;;;5113752;28;20032;-66
2023/03/05 03:21:33;;;;;;;8.25;4.20;;;;;;;;;;5113506;28;20032;-66
2023/03/05 03:23:59;;;;;;;8.55;3.50;;;;;;;;;;5112179;28;20035;-66
2023/03/05 03:26:24;;;;;;;7.22;3.70;;;;;;;;;;5112334;28;20023;-67
2023/03/05 03:28:50;;;;;;;9.90;3.70;;;;;;;;;;5113276;28;20096;-67
2023/03/05 03:31:15;;;;;;;10.93;4.18;;;;;;;;;;5112302;28;20096;-67
2023/03/05 03:33:40;;;;;;;12.55;3.80;;;;;;;;;;5112398;28;20077;-65
2023/03/05 03:36:06;;;;;;;6.35;3.70;;;;;;;;;;5113316;28;20020;-66
2023/03/05 03:38:32;;;;;;;9.20;4.10;;;;;;;;;;5111663;28;20063;-66
2023/03/05 03:40:57;;;;;;;6.13;3.65;;;;;;;;;;5113589;28;20078;-65
2023/03/05 03:43:23;;;;;;;11.93;4.43;;;;;;;;;;5111953;28;20027;-64
2023/03/05 03:45:48;;;;;;;9.10;4.03;;;;;;;;;;5113169;28;20031;-63
2023/03/05 03:48:14;;;;;;;10.93;4.60;;;;;;;;;;5112989;28;20037;-66
2023/03/05 03:50:40;;;;;;;8.68;4.05;;;;;;;;;;5112050;28;20032;-64
2023/03/05 03:53:05;;;;;;;6.45;3.90;;;;;;;;;;5111713;28;20050;-62
2023/03/05 03:55:31;;;;;;;8.52;3.90;;;;;;;;;;5112840;28;20023;-62
2023/03/05 03:57:56;;;;;;;6.28;3.88;;;;;;;;;;5112907;28;20489;-61
2023/03/05 04:00:21;;;;;;;10.68;4.15;;;;;;;;;;5112803;28;20019;-62
2023/03/05 04:02:47;;;;;;;6.05;2.85;;;;;;;;;;5113121;28;20104;-65
2023/03/05 04:05:12;;;;;;;5.75;3.70;;;;;;;;;;5113115;28;20016;-64
2023/03/05 04:07:37;;;;;;;12.82;4.32;;;;;;;;;;5112756;28;20068;-63
2023/03/05 04:10:03;;;;;;;5.85;3.80;;;;;;;;;;5112771;28;20035;-62
2023/03/05 04:12:28;;;;;;;7.55;4.05;;;;;;;;;;5112751;28;20039;-62
2023/03/05 04:14:53;;;;;;;9.77;3.38;;;;;;;;;;5112978;28;20023;-67
2023/03/05 04:17:19;;;;;;;5.38;3.05;;;;;;;;;;5111251;28;20027;-61
2023/03/05 04:19:44;;;;;;;7.82;4.13;;;;;;;;;;5112720;28;20060;-61
2023/03/05 04:22:10;;;;;;;7.95;3.85;;;;;;;;;;5111376;28;20381;-61
2023/03/05 04:24:36;;;;;;;9.95;4.50;;;;;;;;;;5111129;28;20024;-65
2023/03/05 04:27:01;;;;;;;9.75;3.22;;;;;;;;;;5112425;28;20039;-64
2023/03/05 04:29:27;;;;;;;7.63;3.17;;;;;;;;;;5111020;28;20044;-65
2023/03/05 04:31:52;;;;;;;9.23;4.03;;;;;;;;;;5094268;28;20387;-62
2023/03/05 04:34:17;;;;;;;6.13;3.75;;;;;;;;;;5112673;28;20026;-65
2023/03/05 04:36:43;;;;;;;8.07;4.10;;;;;;;;;;5112351;28;20385;-64
2023/03/05 04:39:08;;;;;;;4.45;3.33;;;;;;;;;;5111249;28;20045;-64
2023/03/05 04:41:33;;;;;;;7.30;3.65;;;;;;;;;;5111086;28;20359;-64
2023/03/05 04:43:59;;;;;;;8.45;4.40;;;;;;;;;;5094018;28;20461;-64
2023/03/05 04:46:24;;;;;;;12.82;5.57;;;;;;;;;;5112339;28;20035;-62
2023/03/05 04:48:50;;;;;;;6.60;3.88;;;;;;;;;;5112175;28;20076;-66
2023/03/05 04:51:15;;;;;;;6.90;3.50;;;;;;;;;;5112362;28;20085;-66
2023/03/05 04:53:40;;;;;;;10.15;3.20;;;;;;;;;;5112457;28;20024;-66
2023/03/05 04:56:06;;;;;;;6.72;2.92;;;;;;;;;;5110893;28;20370;-66
2023/03/05 04:58:31;;;;;;;11.90;5.95;;;;;;;;;;5111584;28;20052;-67
2023/03/05 05:01:01;;;;;;;5.82;3.00;;;;;;;;;;5112409;28;20035;-66
2023/03/05 05:03:26;;;;;;;11.10;4.32;;;;;;;;;;5112294;28;20032;-67
2023/03/05 05:05:56;;;;;;;8.85;4.05;;;;;;;;;;5110990;28;20065;-65
2023/03/05 05:08:21;;;;;;;5.65;3.97;;;;;;;;;;5093783;28;20019;-65
2023/03/05 05:10:54;;;;;;;8.65;3.60;;;;;;;;;;5093762;28;20040;-62
2023/03/05 05:13:19;;;;;;;8.00;3.35;;;;;;;;;;5112065;28;20020;-61
2023/03/05 05:15:44;;;;;;;10.95;4.55;;;;;;;;;;5110784;28;20027;-60
2023/03/05 05:18:10;;;;;;;6.50;4.40;;;;;;;;;;5111516;28;20058;-61
2023/03/05 05:20:35;;;;;;;7.63;4.00;;;;;;;;;;5110321;28;20047;-62
2023/03/05 05:23:00;;;;;;;8.70;3.88;;;;;;;;;;5110556;28;20038;-66
2023/03/05 05:25:26;;;;;;;9.40;4.28;;;;;;;;;;5111999;28;20043;-62
2023/03/05 05:27:51;;;;;;;11.25;4.47;;;;;;;;;;5112001;28;20465;-63
2023/03/05 05:30:16;;;;;;;9.40;4.35;;;;;;;;;;5111622;28;20047;-62
2023/03/05 05:32:42;;;;;;;6.45;3.20;;;;;;;;;;5110684;28;20469;-62
2023/03/05 05:35:08;;;;;;;6.88;3.47;;;;;;;;;;5111352;28;20266;-62
2023/03/05 05:37:34;;;;;;;8.40;3.83;;;;;;;;;;5112439;28;20023;-63
2023/03/05 05:39:59;;;;;;;6.85;3.85;;;;;;;;;;5115934;28;20024;-67
2023/03/05 05:42:25;;;;;;;10.25;4.90;;;;;;;;;;5114262;28;20030;-62
2023/03/05 05:44:50;;;;;;;6.93;3.33;;;;;;;;;;5097080;28;20058;-64
2023/03/05 05:47:16;;;;;;;12.52;4.70;;;;;;;;;;5096845;28;20089;-62
2023/03/05 05:49:42;;;;;;;8.02;3.13;;;;;;;;;;5096718;28;20032;-67
2023/03/05 05:52:08;;;;;;;13.07;4.75;;;;;;;;;;5115035;28;20092;-67
2023/03/05 05:54:33;;;;;;;14.18;4.90;;;;;;;;;;5113556;28;20032;-66
2023/03/05 05:56:59;;;;;;;10.50;4.28;;;;;;;;;;5114688;28;20385;-66
2023/03/05 05:59:24;;;;;;;13.85;5.93;;;;;;;;;;5114624;28;20477;-67
2023/03/05 06:01:49;;;;;;;10.60;4.35;;;;;;;;;;5113475;28;20061;-68
2023/03/05 06:04:15;;;;;;;10.18;4.95;;;;;;;;;;5113467;28;20035;-67
2023/03/05 06:06:40;;;;;;;8.60;4.78;;;;;;;;;;5114633;28;20024;-68
2023/03/05 06:09:06;;;;;;;6.70;4.22;;;;;;;;;;5114394;28;20024;-68
2023/03/05 06:11:32;;;;;;;10.30;5.03;;;;;;;;;;5114776;28;20051;-68
2023/03/05 06:13:58;;;;;;;12.52;5.13;;;;;;;;;;5114721;28;20015;-67
2023/03/05 06:16:24;;;;;;;9.75;5.30;;;;;;;;;;5114353;28;20403;-67
2023/03/05 06:18:50;;;;;;;6.32;4.57;;;;;;;;;;5114265;28;20015;-68
2023/03/05 06:21:16;;;;;;;9.40;5.75;;;;;;;;;;5113043;28;20484;-67
2023/03/05 06:23:42;;;;;;;12.05;5.85;;;;;;;;;;5114280;28;20023;-67
2023/03/05 06:26:09;;;;;;;13.82;5.72;;;;;;;;;;5114151;28;20479;-68
2023/03/05 06:28:35;;;;;;;12.20;5.47;;;;;;;;;;5112801;28;20131;-68
2023/03/05 06:31:04;;;;;;;14.65;6.25;;;;;;;;;;5113483;28;20126;-68
2023/03/05 06:33:30;;;;;;;14.95;7.55;;;;;;;;;;5113070;28;20038;-69
2023/03/05 06:35:55;;;;;;;10.13;5.93;;;;;;;;;;5112950;28;20028;-68
2023/03/05 06:38:21;;;;;;;9.85;5.43;;;;;;;;;;5113822;28;20031;-68
2023/03/05 06:40:46;;;;;;;12.35;5.88;;;;;;;;;;5114424;28;20019;-68
2023/03/05 06:43:11;;;;;;;13.10;6.90;;;;;;;;;;5114239;28;20015;-68
2023/03/05 06:45:37;;;;;;;10.48;5.35;;;;;;;;;;5112785;28;20065;-68
2023/03/05 06:48:02;;;;;;;9.88;5.50;;;;;;;;;;5113149;28;20026;-69
2023/03/05 06:50:28;;;;;;;11.77;5.30;;;;;;;;;;5112540;28;20048;-69
2023/03/05 06:52:53;;;;;;;9.55;5.63;;;;;;;;;;5095727;28;20471;-69
2023/03/05 06:55:19;;;;;;;9.60;5.95;;;;;;;;;;5113795;28;20036;-69
2023/03/05 06:57:44;;;;;;;11.65;5.88;;;;;;;;;;5113944;28;20020;-69
2023/03/05 07:00:10;;;;;;;6.60;3.80;;;;;;;;;;5113811;28;20066;-69
2023/03/05 07:02:36;;;;;;;12.13;5.97;;;;;;;;;;5113676;28;20041;-68
2023/03/05 07:05:01;;;;;;;7.90;4.88;;;;;;;;;;5113657;28;20469;-68
2023/03/05 07:07:27;;;;;;;11.20;5.57;;;;;;;;;;5113701;28;20011;-67
2023/03/05 07:09:52;;;;;;;11.50;5.70;;;;;;;;;;5095061;28;20044;-67
2023/03/05 07:12:17;;;;;;;24.95;6.60;;;;;;;;;;5113171;28;20022;-66
2023/03/05 07:14:43;;;;;;;10.02;5.90;;;;;;;;;;5111812;28;20537;-64
2023/03/05 07:17:08;;;;;;;13.85;5.38;;;;;;;;;;5111569;28;20032;-64
2023/03/05 07:19:34;;;;;;;11.43;6.72;;;;;;;;;;5113092;28;20469;-65
2023/03/05 07:21:59;;;;;;;14.07;6.43;;;;;;;;;;5111603;28;20434;-65
2023/03/05 07:24:28;;;;;;;10.23;5.35;;;;;;;;;;5112744;28;20030;-65
2023/03/05 07:26:55;;;;;;;16.33;7.28;;;;;;;;;;5112760;28;20438;-64
2023/03/05 07:29:22;;;;;;;10.00;5.60;;;;;;;;;;5112485;28;20214;-64
2023/03/05 07:31:48;;;;;;;9.93;5.43;;;;;;;;;;5112812;28;20035;-64
2023/03/05 07:34:13;;;;;;;12.88;7.22;;;;;;;;;;5111230;28;20035;-66
2023/03/05 07:36:39;;;;;;;10.10;4.68;;;;;;;;;;5111220;28;20019;-64
2023/03/05 07:39:05;;;;;;;14.57;5.97;;;;;;;;;;5111199;28;20104;-64
2023/03/05 07:41:30;;;;;;;10.63;4.63;;;;;;;;;;5112726;28;20173;-63
2023/03/05 07:43:56;;;;;;;12.18;5.35;;;;;;;;;;5112558;28;20560;-64
2023/03/05 07:46:24;;;;;;;8.10;5.07;;;;;;;;;;5094014;28;20032;-64
2023/03/05 07:48:50;;;;;;;11.00;6.57;;;;;;;;;;5112323;28;20392;-64
2023/03/05 07:51:17;;;;;;;13.85;7.03;;;;;;;;;;5112366;28;20384;-64
2023/03/05 07:53:43;;;;;;;11.30;5.35;;;;;;;;;;5112194;28;20016;-64
2023/03/05 07:56:08;;;;;;;11.70;5.20;;;;;;;;;;5110748;28;20461;-64
2023/03/05 07:58:35;;;;;;;12.68;6.20;;;;;;;;;;5112074;28;20126;-65
2023/03/05 08:01:00;;;;;;;14.90;7.00;;;;;;;;;;5111941;28;20111;-65
2023/03/05 08:03:25;;;;;;;12.55;7.07;;;;;;;;;;5111879;28;20104;-65
2023/03/05 08:05:51;;;;;;;17.08;6.43;;;;;;;;;;5112030;28;20026;-63
2023/03/05 08:08:17;;;;;;;10.27;4.30;;;;;;;;;;5110486;28;20027;-63
2023/03/05 08:10:42;;;;;;;14.45;6.95;;;;;;;;;;5112095;28;20469;-64
2023/03/05 08:13:08;;;;;;;15.27;7.35;;;;;;;;;;5112007;28;20107;-62
2023/03/05 08:15:35;;;;;;;11.10;5.78;;;;;;;;;;5111902;28;20020;-64
2023/03/05 08:18:00;;;;;;;15.02;6.57;;;;;;;;;;5111893;28;20034;-64
2023/03/05 08:20:26;;;;;;;11.02;5.35;;;;;;;;;;5110460;28;20015;-63
2023/03/05 08:22:52;;;;;;;9.63;3.53;;;;;;;;;;5110710;28;20032;-63
2023/03/05 08:25:17;;;;;;;10.00;6.15;;;;;;;;;;5110428;28;20042;-63
2023/03/05 08:27:44;;;;;;;13.07;5.20;;;;;;;;;;5110444;28;20039;-63
2023/03/05 08:30:13;;;;;;;6.60;3.88;;;;;;;;;;5111359;28;20048;-64
2023/03/05 08:32:42;;;;;;;16.67;5.75;;;;;;;;;;5111600;28;20031;-64
2023/03/05 08:35:08;;;;;;;9.80;5.00;;;;;;;;;;5111467;28;20027;-63
2023/03/05 08:37:35;;;;;;;8.75;4.57;;;;;;;;;;5111525;28;20039;-63
2023/03/05 08:40:02;;;;;;;11.70;6.65;;;;;;;;;;5110426;28;20023;-63
2023/03/05 08:42:28;;;;;;;13.00;6.70;;;;;;;;;;5111542;28;20032;-63
2023/03/05 08:44:53;;;;;;;9.25;5.45;;;;;;;;;;5111625;28;20026;-63
2023/03/05 08:47:19;;;;;;;16.77;6.75;;;;;;;;;;5111736;28;20118;-63
2023/03/05 08:49:44;;;;;;;12.10;6.40;;;;;;;;;;5111354;28;20030;-62
2023/03/05 08:52:10;;;;;;;7.85;3.95;;;;;;;;;;5111483;28;20385;-63
2023/03/05 08:54:36;;;;;;;8.48;4.35;;;;;;;;;;5110377;28;20020;-63
2023/03/05 08:57:02;;;;;;;7.53;4.05;;;;;;;;;;5111426;28;20039;-63
2023/03/05 08:59:27;;;;;;;14.02;4.57;;;;;;;;;;5111357;28;20407;-63
2023/03/05 09:01:53;;;;;;;14.30;5.28;;;;;;;;;;5111395;28;20484;-64
2023/03/05 09:04:18;;;;;;;16.80;5.88;;;;;;;;;;5111670;28;20043;-63
2023/03/05 09:06:44;;;;;;;9.60;5.63;;;;;;;;;;5110045;28;20028;-63
2023/03/05 09:09:09;;;;;;;10.18;5.78;;;;;;;;;;5111522;28;20125;-65
2023/03/05 09:11:35;;;;;;;11.32;4.68;;;;;;;;;;5112498;28;20031;-64
2023/03/05 09:14:01;;;;;;;12.35;5.50;;;;;;;;;;5114007;28;20023;-64
2023/03/05 09:16:27;;;;;;;10.57;3.88;;;;;;;;;;5097042;28;20559;-62
2023/03/05 09:18:52;;;;;;;11.77;5.20;;;;;;;;;;5115419;28;20094;-64
2023/03/05 09:21:18;;;;;;;10.70;5.70;;;;;;;;;;5115456;28;20514;-63
2023/03/05 09:23:45;;;;;;;12.85;6.00;;;;;;;;;;5115133;28;20376;-63
2023/03/05 09:26:12;;;;;;;8.82;4.57;;;;;;;;;;5114911;28;20526;-64
2023/03/05 09:28:37;;;;;;;12.82;6.13;;;;;;;;;;5115031;28;20405;-63
2023/03/05 09:31:04;;;;;;;18.85;7.43;;;;;;;;;;5115195;28;20035;-64
2023/03/05 09:33:31;;;;;;;5.95;3.80;;;;;;;;;;5115241;28;20354;-64
2023/03/05 09:35:57;;;;;;;10.55;4.30;;;;;;;;;;5114875;28;20031;-63
2023/03/05 09:38:22;;;;;;;10.18;4.63;;;;;;;;;;5114722;28;20020;-63
2023/03/05 09:40:52;;;;;;;12.20;5.55;;;;;;;;;;5113888;28;20372;-63
2023/03/05 09:43:36;;;;;;;12.25;4.38;;;;;;;;;;5114604;28;20124;-62
2023/03/05 09:46:15;;;;;;;9.10;4.50;;;;;;;;;;5096467;28;20562;-63
2023/03/05 09:48:57;;;;;;;9.43;5.05;;;;;;;;;;5113148;28;20459;-62
2023/03/05 09:51:24;;;;;;;10.55;5.00;;;;;;;;;;5114503;28;20043;-64
2023/03/05 09:53:55;;;;;;;9.40;4.85;;;;;;;;;;5096229;28;20027;-63
2023/03/05 09:56:41;;;;;;;12.23;4.95;;;;;;;;;;5112924;28;20496;-63
2023/03/05 09:59:28;;;;;;;14.77;6.47;;;;;;;;;;5113931;28;20394;-63
2023/03/05 10:01:56;;;;;;;13.50;6.45;;;;;;;;;;5114624;27;20153;-63
2023/03/05 10:04:21;;;;;;;11.55;6.25;;;;;;;;;;5114247;28;20020;-63
2023/03/05 10:06:53;;;;;;;11.93;5.95;;;;;;;;;;5114257;28;20377;-64
2023/03/05 10:09:41;;;;;;;9.60;4.90;;;;;;;;;;5114116;28;20115;-63
2023/03/05 10:12:07;;;;;;;11.75;6.00;;;;;;;;;;5112879;28;20027;-63
2023/03/05 10:14:33;;;;;;;12.00;6.20;;;;;;;;;;5112901;28;20483;-63
2023/03/05 10:16:59;;;;;;;11.57;4.30;;;;;;;;;;5114326;28;20028;-63
2023/03/05 10:19:37;;;;;;;12.70;4.82;;;;;;;;;;5114298;28;20437;-62
2023/03/05 10:22:02;;;;;;;11.98;5.25;;;;;;;;;;5113607;28;20032;-63
2023/03/05 10:24:46;;;;;;;9.98;4.53;;;;;;;;;;5112578;28;20599;-64
2023/03/05 10:27:20;;;;;;;13.18;4.47;;;;;;;;;;5112486;28;20114;-64
2023/03/05 10:29:51;;;;;;;12.65;6.38;;;;;;;;;;5113667;28;20123;-63
2023/03/05 10:32:20;;;;;;;8.65;5.05;;;;;;;;;;5113706;28;20031;-63
2023/03/05 10:34:45;;;;;;;21.65;6.85;;;;;;;;;;5114089;27;20054;-63
2023/03/05 10:37:11;;;;;;;8.05;5.18;;;;;;;;;;5113704;28;20081;-64
2023/03/05 10:39:39;;;;;;;13.48;5.03;;;;;;;;;;5113782;28;20023;-63
2023/03/05 10:42:20;;;;;;;10.90;4.97;;;;;;;;;;5113835;28;20418;-62
2023/03/05 10:44:52;;;;;;;14.48;6.63;;;;;;;;;;5112183;28;20067;-64
2023/03/05 10:47:17;;;;;;;10.80;5.35;;;;;;;;;;5113485;28;20027;-64
2023/03/05 10:49:47;;;;;;;13.80;5.68;;;;;;;;;;5113552;28;20035;-64
2023/03/05 10:52:15;;;;;;;7.78;3.88;;;;;;;;;;5113443;28;20060;-64
2023/03/05 10:54:42;;;;;;;15.50;6.03;;;;;;;;;;5113350;28;20043;-63
2023/03/05 10:57:11;;;;;;;14.57;5.32;;;;;;;;;;5111881;28;20032;-63
2023/03/05 10:59:36;;;;;;;6.13;3.65;;;;;;;;;;5113264;28;20019;-62
2023/03/05 11:02:07;;;;;;;14.93;4.95;;;;;;;;;;5113231;28;20020;-63
2023/03/05 11:04:35;;;;;;;14.32;6.03;;;;;;;;;;5113193;28;20024;-64
2023/03/05 11:07:26;;;;;;;9.95;5.32;;;;;;;;;;5113382;28;20024;-64
2023/03/05 11:10:12;;;;;;;9.57;4.80;;;;;;;;;;5094704;28;20504;-64
2023/03/05 11:12:38;;;;;;;11.32;4.53;;;;;;;;;;5094735;28;20031;-64
2023/03/05 11:15:12;;;;;;;11.48;4.75;;;;;;;;;;5111713;28;20024;-64
2023/03/05 11:17:38;;;;;;;12.77;5.00;;;;;;;;;;5112929;28;20028;-63
2023/03/05 11:20:22;;;;;;;10.52;5.75;;;;;;;;;;5111450;28;20381;-64
2023/03/05 11:23:08;;;;;;;5.30;3.70;;;;;;;;;;5094698;28;20031;-65
2023/03/05 11:25:50;;;;;;;10.55;5.18;;;;;;;;;;5101822;27;20035;-64
2023/03/05 11:28:20;;;;;;;10.13;4.18;;;;;;;;;;5112396;28;20481;-64
2023/03/05 11:30:54;;;;;;;9.05;5.45;;;;;;;;;;5112781;28;20124;-64
2023/03/05 11:33:22;;;;;;;8.85;4.72;;;;;;;;;;5112538;28;20023;-64
2023/03/05 11:35:48;;;;;;;11.07;6.18;;;;;;;;;;5110910;28;20028;-64
2023/03/05 11:38:16;;;;;;;7.15;4.90;;;;;;;;;;5111094;28;20516;-64
2023/03/05 11:40:42;;;;;;;8.27;5.07;;;;;;;;;;5113130;28;20022;-65
2023/03/05 11:43:14;;;;;;;11.77;5.82;;;;;;;;;;5111143;28;20110;-64
2023/03/05 11:45:41;;;;;;;10.23;4.72;;;;;;;;;;5111024;28;20023;-64
2023/03/05 11:48:09;;;;;;;12.18;5.13;;;;;;;;;;5111063;28;20096;-63
2023/03/05 11:50:37;;;;;;;12.93;5.88;;;;;;;;;;5110779;28;20405;-63
2023/03/05 11:53:06;;;;;;;7.30;3.60;;;;;;;;;;5111005;28;20423;-63
2023/03/05 11:55:48;;;;;;;8.30;4.45;;;;;;;;;;5093719;28;20443;-63
2023/03/05 11:58:32;;;;;;;12.20;5.15;;;;;;;;;;5110762;28;20428;-64
2023/03/05 12:00:59;;;;;;;7.65;4.50;;;;;;;;;;5111030;28;20367;-65
2023/03/05 12:03:32;;;;;;;11.32;5.15;;;;;;;;;;5112309;28;20047;-65
2023/03/05 12:06:00;;;;;;;8.57;4.43;;;;;;;;;;5110914;28;20529;-65
2023/03/05 12:08:29;;;;;;;10.75;4.93;;;;;;;;;;5110837;28;20161;-65
2023/03/05 12:10:56;;;;;;;8.23;4.60;;;;;;;;;;5110696;28;20082;-64
2023/03/05 12:13:30;;;;;;;6.25;4.18;;;;;;;;;;5112066;28;20012;-65
2023/03/05 12:16:09;;;;;;;9.60;5.05;;;;;;;;;;5111958;28;20691;-65
2023/03/05 12:18:35;;;;;;;5.95;3.42;;;;;;;;;;5111944;28;20020;-65
2023/03/05 12:21:06;;;;;;;6.22;4.38;;;;;;;;;;5110813;28;20377;-64
2023/03/05 12:23:46;;;;;;;6.00;4.05;;;;;;;;;;5112000;28;20042;-64
2023/03/05 12:26:11;;;;;;;8.10;4.30;;;;;;;;;;5111866;28;20379;-64
2023/03/05 12:28:40;;;;;;;9.80;4.35;;;;;;;;;;5110300;28;20047;-64
2023/03/05 12:31:09;;;;;;;12.77;5.10;;;;;;;;;;5110473;28;20062;-65
2023/03/05 12:33:34;;;;;;;11.30;4.57;;;;;;;;;;5110488;28;20607;-64
2023/03/05 12:36:18;;;;;;;7.93;4.05;;;;;;;;;;5110390;28;20035;-64
2023/03/05 12:38:50;;;;;;;11.18;4.28;;;;;;;;;;5110600;28;20028;-65
2023/03/05 12:41:22;;;;;;;13.77;4.43;;;;;;;;;;5111546;28;20024;-64
2023/03/05 12:44:05;;;;;;;10.18;4.45;;;;;;;;;;5111740;28;20023;-65
2023/03/05 12:46:35;;;;;;;8.25;4.43;;;;;;;;;;5113165;28;20569;-63
2023/03/05 12:49:20;;;;;;;9.35;4.05;;;;;;;;;;5114648;28;20053;-64
2023/03/05 12:51:49;;;;;;;9.98;4.47;;;;;;;;;;5115813;28;20070;-64
2023/03/05 12:54:17;;;;;;;12.25;5.30;;;;;;;;;;5115632;28;20018;-64
2023/03/05 12:56:45;;;;;;;7.97;3.25;;;;;;;;;;5115621;28;20066;-64
2023/03/05 12:59:11;;;;;;;11.77;5.25;;;;;;;;;;5115651;28;20080;-64
2023/03/05 13:01:37;;;;;;;8.38;3.80;;;;;;;;;;5115790;28;20063;-64
2023/03/05 13:04:09;;;;;;;8.93;4.32;;;;;;;;;;5115616;28;20437;-64
2023/03/05 13:06:35;;;;;;;9.52;5.30;;;;;;;;;;5115592;28;20024;-64
2023/03/05 13:09:13;;;;;;;7.93;4.45;;;;;;;;;;5115336;28;20072;-64
2023/03/05 13:11:39;;;;;;;12.73;4.72;;;;;;;;;;5114229;28;20071;-63
2023/03/05 13:14:24;;;;;;;7.47;4.63;;;;;;;;;;5115367;28;20063;-64
2023/03/05 13:16:49;;;;;;;7.80;4.57;;;;;;;;;;5096933;28;20028;-64
2023/03/05 13:19:17;;;;;;;11.45;4.65;;;;;;;;;;5113595;28;20026;-64
2023/03/05 13:21:43;;;;;;;11.55;5.53;;;;;;;;;;5115377;28;20126;-63
2023/03/05 13:24:15;;;;;;;12.48;4.05;;;;;;;;;;5115159;28;20108;-63
2023/03/05 13:26:41;;;;;;;10.03;5.90;;;;;;;;;;5115227;28;20027;-63
2023/03/05 13:29:17;;;;;;;8.65;4.60;;;;;;;;;;5114797;28;20069;-63
2023/03/05 13:31:50;;;;;;;11.10;4.50;;;;;;;;;;5113828;28;20050;-63
2023/03/05 13:34:26;;;;;;;6.07;4.13;;;;;;;;;;5114909;28;20109;-63
2023/03/05 13:36:59;;;;;;;9.07;4.50;;;;;;;;;;5113451;28;20401;-63
2023/03/05 13:39:27;;;;;;;9.40;4.50;;;;;;;;;;5115043;28;20023;-63
2023/03/05 13:42:16;;;;;;;8.93;5.20;;;;;;;;;;5114865;28;20022;-63
2023/03/05 13:44:42;;;;;;;9.25;5.22;;;;;;;;;;5105678;28;20309;-63
2023/03/05 13:47:11;;;;;;;11.45;6.03;;;;;;;;;;5113322;28;20473;-64
2023/03/05 13:49:37;;;;;;;8.15;4.47;;;;;;;;;;5114558;28;20035;-63
2023/03/05 13:52:06;;;;;;;9.50;5.75;;;;;;;;;;5113282;28;20479;-64
2023/03/05 13:54:32;;;;;;;11.93;5.15;;;;;;;;;;5113130;28;20430;-63
2023/03/05 13:56:59;;;;;;;11.10;4.38;;;;;;;;;;5113806;28;20015;-63
2023/03/05 13:59:29;;;;;;;9.75;4.78;;;;;;;;;;5113214;28;20036;-63
2023/03/05 14:01:59;;;;;;;7.68;3.17;;;;;;;;;;5114527;28;20028;-63
2023/03/05 14:04:34;;;;;;;8.25;4.07;;;;;;;;;;5113046;28;20461;-63
2023/03/05 14:07:05;;;;;;;7.18;4.82;;;;;;;;;;5114375;28;20024;-64
2023/03/05 14:09:44;;;;;;;8.73;4.22;;;;;;;;;;5112914;28;20489;-64
2023/03/05 14:12:30;;;;;;;9.60;4.65;;;;;;;;;;5096167;28;20028;-65
2023/03/05 14:14:56;;;;;;;14.20;5.43;;;;;;;;;;5095883;28;20101;-66
2023/03/05 14:17:41;;;;;;;13.73;5.28;;;;;;;;;;5114375;27;20023;-67
2023/03/05 14:20:12;;;;;;;5.68;3.58;;;;;;;;;;5113527;28;20054;-67
2023/03/05 14:22:40;;;;;;;11.55;4.30;;;;;;;;;;5113488;28;20084;-67
2023/03/05 14:25:06;;;;;;;9.45;4.95;;;;;;;;;;5114755;28;20016;-66
2023/03/05 14:27:35;;;;;;;9.70;4.03;;;;;;;;;;5096428;28;20032;-67
2023/03/05 14:30:01;;;;;;;14.25;4.72;;;;;;;;;;5113379;28;20047;-67
2023/03/05 14:32:31;;;;;;;11.60;5.15;;;;;;;;;;5113497;28;20595;-67
2023/03/05 14:34:58;;;;;;;3.38;2.17;;;;;;;;;;5114784;28;20077;-68
2023/03/05 14:37:35;;;;;;;16.55;5.68;;;;;;;;;;5114530;28;20145;-67
2023/03/05 14:40:05;;;;;;;7.50;3.63;;;;;;;;;;5114734;28;20023;-67
2023/03/05 14:42:30;;;;;;;9.10;4.00;;;;;;;;;;5113279;28;20032;-68